createdAt,value
2019-04-05T00:01:03.976Z,32.23
2019-04-05T00:03:32.880Z,32.07
2019-04-05T00:06:03.301Z,30.33
2019-04-05T00:08:34.927Z,31.03
2019-04-05T00:11:03.887Z,32.20
2019-04-05T00:13:32.791Z,29.90
2019-04-05T00:16:02.051Z,31.27
2019-04-05T00:18:33.773Z,30.30
2019-04-05T00:21:02.770Z,29.77
2019-04-05T00:23:34.414Z,29.80
2019-04-05T00:26:03.506Z,29.77
2019-04-05T00:28:32.406Z,31.43
2019-04-05T00:31:03.176Z,32.30
2019-04-05T00:33:34.755Z,30.37
2019-04-05T00:36:03.718Z,31.57
2019-04-05T00:38:32.711Z,30.97
2019-04-05T00:41:04.598Z,32.90
2019-04-05T00:43:33.511Z,35.90
2019-04-05T00:46:05.171Z,36.63
2019-04-05T00:48:34.079Z,32.43
2019-04-05T00:51:03.060Z,31.70
2019-04-05T00:53:34.753Z,27.83
2019-04-05T00:56:03.764Z,32.80
2019-04-05T00:58:35.677Z,30.53
2019-04-05T01:01:04.688Z,32.43
2019-04-05T01:03:33.638Z,32.43
2019-04-05T01:06:04.009Z,33.40
2019-04-05T01:08:35.773Z,38.23
2019-04-05T01:11:04.879Z,38.70
2019-04-05T01:13:35.849Z,38.87
2019-04-05T01:16:04.980Z,39.40
2019-04-05T01:18:35.289Z,39.97
2019-04-05T01:21:04.910Z,40.67
2019-04-05T01:23:35.362Z,43.43
2019-04-05T01:26:04.825Z,40.97
2019-04-05T01:28:34.372Z,43.20
2019-04-05T01:31:03.290Z,42.00
2019-04-05T01:33:32.228Z,42.10
2019-04-05T01:36:01.159Z,40.67
2019-04-05T01:38:30.224Z,42.33
2019-04-05T01:41:00.730Z,42.03
2019-04-05T01:43:29.675Z,40.60
2019-04-05T01:45:59.290Z,42.77
2019-04-05T01:48:28.293Z,43.33
2019-04-05T01:50:57.208Z,46.27
2019-04-05T01:53:26.159Z,44.60
2019-04-05T01:55:55.069Z,47.50
2019-04-05T01:58:24.022Z,46.67
2019-04-05T02:00:52.935Z,48.60
2019-04-05T02:03:21.895Z,49.00
2019-04-05T02:05:50.810Z,47.03
2019-04-05T02:08:19.751Z,47.97
2019-04-05T02:10:48.654Z,48.23
2019-04-05T02:13:17.638Z,48.40
2019-04-05T02:15:46.543Z,48.37
2019-04-05T02:18:15.462Z,49.03
2019-04-05T02:20:44.423Z,51.17
2019-04-05T02:23:13.333Z,52.57
2019-04-05T02:25:42.386Z,53.63
2019-04-05T02:28:14.178Z,55.17
2019-04-05T02:30:43.138Z,54.87
2019-04-05T02:33:12.057Z,55.00
2019-04-05T02:35:40.995Z,53.43
2019-04-05T02:38:11.504Z,53.77
2019-04-05T02:40:44.526Z,54.57
2019-04-05T02:43:15.794Z,53.67
2019-04-05T02:45:47.568Z,54.77
2019-04-05T02:48:18.472Z,53.67
2019-04-05T02:50:50.354Z,54.40
2019-04-05T02:53:20.863Z,52.57
2019-04-05T02:55:50.112Z,52.03
2019-04-05T02:58:20.526Z,49.83
2019-04-05T03:00:50.481Z,50.00
2019-04-05T03:03:19.492Z,53.27
2019-04-05T03:05:48.649Z,51.87
2019-04-05T03:08:18.257Z,49.27
2019-04-05T03:11:10.798Z,49.73
2019-04-05T03:13:42.642Z,50.67
2019-04-05T03:16:17.318Z,52.90
2019-04-05T03:18:49.256Z,50.23
2019-04-05T03:21:20.774Z,53.13
2019-04-05T03:23:50.704Z,52.53
2019-04-05T03:26:24.103Z,55.23
2019-04-05T03:28:55.940Z,54.70
2019-04-05T03:31:26.042Z,54.77
2019-04-05T03:33:55.699Z,56.83
2019-04-05T03:36:28.459Z,54.87
2019-04-05T03:38:57.369Z,55.80
2019-04-05T03:41:26.732Z,53.53
2019-04-05T03:43:55.750Z,55.20
2019-04-05T03:46:27.964Z,57.20
2019-04-05T03:48:56.972Z,55.27
2019-04-05T03:51:26.223Z,55.20
2019-04-05T03:53:55.632Z,53.80
2019-04-05T03:56:27.575Z,54.30
2019-04-05T03:58:56.771Z,54.37
2019-04-05T04:01:29.029Z,55.90
2019-04-05T04:03:57.934Z,54.30
2019-04-05T04:06:26.998Z,55.93
2019-04-05T04:08:59.028Z,53.83
2019-04-05T04:11:28.333Z,54.47
2019-04-05T04:13:57.885Z,53.40
2019-04-05T04:16:26.929Z,52.87
2019-04-05T04:19:00.173Z,53.17
2019-04-05T04:21:34.810Z,55.57
2019-04-05T04:24:04.818Z,54.47
2019-04-05T04:26:34.263Z,52.43
2019-04-05T04:29:03.272Z,52.87
2019-04-05T04:31:32.727Z,52.83
2019-04-05T04:34:02.159Z,52.47
2019-04-05T04:36:31.196Z,52.00
2019-04-05T04:39:00.266Z,52.07
2019-04-05T04:41:32.015Z,50.00
2019-04-05T04:44:02.953Z,49.93
2019-04-05T04:46:32.555Z,52.67
2019-04-05T04:49:02.176Z,51.97
2019-04-05T04:51:31.990Z,51.43
2019-04-05T04:54:04.539Z,51.73
2019-04-05T04:56:33.815Z,51.90
2019-04-05T04:59:02.780Z,52.53
2019-04-05T05:01:33.564Z,52.97
2019-04-05T05:04:02.982Z,52.97
2019-04-05T05:06:32.548Z,52.00
2019-04-05T05:09:06.527Z,50.07
2019-04-05T05:11:35.541Z,50.43
2019-04-05T05:14:04.796Z,52.23
2019-04-05T05:16:33.699Z,51.27
2019-04-05T05:19:02.906Z,52.23
2019-04-05T05:21:34.594Z,50.70
2019-04-05T05:24:03.760Z,52.60
2019-04-05T05:26:33.116Z,50.83
2019-04-05T05:29:05.061Z,50.90
2019-04-05T05:31:34.207Z,50.97
2019-04-05T05:34:07.492Z,48.83
2019-04-05T05:36:36.533Z,45.23
2019-04-05T05:39:08.268Z,44.50
2019-04-05T05:41:38.283Z,43.07
2019-04-05T05:44:07.364Z,43.17
2019-04-05T05:46:36.311Z,41.27
2019-04-05T05:49:05.280Z,42.47
2019-04-05T05:51:34.691Z,37.73
2019-04-05T05:54:03.648Z,36.30
2019-04-05T05:56:35.636Z,37.63
2019-04-05T05:59:04.601Z,34.87
2019-04-05T06:01:33.529Z,37.23
2019-04-05T06:04:05.558Z,36.03
2019-04-05T06:06:34.458Z,33.87
2019-04-05T06:09:06.687Z,31.77
2019-04-05T06:11:35.600Z,32.10
2019-04-05T06:14:04.552Z,33.60
2019-04-05T06:16:45.834Z,35.63
2019-04-05T06:19:05.522Z,31.87
2019-04-05T06:21:34.433Z,32.67
2019-04-05T06:24:06.332Z,31.30
2019-04-05T06:26:35.234Z,32.93
2019-04-05T06:29:05.650Z,32.27
2019-04-05T06:31:37.583Z,28.13
2019-04-05T06:34:06.504Z,29.27
2019-04-05T06:36:35.453Z,30.90
2019-04-05T06:39:08.481Z,31.63
2019-04-05T06:41:37.426Z,29.13
2019-04-05T06:44:06.335Z,28.63
2019-04-05T06:46:35.295Z,28.27
2019-04-05T06:49:04.198Z,30.53
2019-04-05T06:51:36.112Z,28.40
2019-04-05T06:54:24.707Z,28.40
2019-04-05T06:56:55.364Z,28.33
2019-04-05T06:59:27.442Z,28.73
2019-04-05T07:01:57.866Z,26.33
2019-04-05T07:04:27.089Z,26.67
2019-04-05T07:06:58.798Z,26.80
2019-04-05T07:09:27.713Z,26.47
2019-04-05T07:11:56.970Z,27.10
2019-04-05T07:14:26.099Z,28.43
2019-04-05T07:16:55.263Z,26.53
2019-04-05T07:19:26.189Z,27.30
2019-04-05T07:21:55.339Z,28.63
2019-04-05T07:24:24.538Z,26.47
2019-04-05T07:26:53.477Z,27.73
2019-04-05T07:29:25.837Z,27.53
2019-04-05T07:31:56.034Z,27.23
2019-04-05T07:34:24.937Z,26.30
2019-04-05T07:36:53.970Z,25.93
2019-04-05T07:39:23.242Z,28.27
2019-04-05T07:41:52.293Z,28.87
2019-04-05T07:44:21.266Z,26.17
2019-04-05T07:46:50.252Z,27.30
2019-04-05T07:49:19.167Z,26.37
2019-04-05T07:51:48.202Z,27.23
2019-04-05T07:54:17.106Z,26.43
2019-04-05T07:56:46.503Z,25.93
2019-04-05T07:59:15.618Z,25.17
2019-04-05T08:01:44.633Z,26.27
2019-04-05T08:04:13.541Z,26.63
2019-04-05T08:06:43.416Z,26.87
2019-04-05T08:09:13.785Z,25.90
2019-04-05T08:11:44.432Z,25.63
2019-04-05T08:14:13.836Z,25.07
2019-04-05T08:16:42.792Z,23.90
2019-04-05T08:19:11.707Z,24.27
2019-04-05T08:21:40.661Z,24.97
2019-04-05T08:24:09.580Z,25.40
2019-04-05T08:26:43.630Z,24.90
2019-04-05T08:29:12.474Z,24.90
2019-04-05T08:31:41.378Z,25.17
2019-04-05T08:34:10.359Z,25.03
2019-04-05T08:36:39.454Z,24.30
2019-04-05T08:39:09.262Z,25.93
2019-04-05T08:41:38.180Z,25.77
2019-04-05T08:44:09.801Z,25.17
2019-04-05T08:46:38.712Z,24.23
2019-04-05T08:49:11.163Z,25.60
2019-04-05T08:51:38.211Z,25.03
2019-04-05T08:54:07.164Z,26.30
2019-04-05T08:56:36.256Z,25.70
2019-04-05T08:59:05.408Z,26.87
2019-04-05T09:01:36.556Z,25.20
2019-04-05T09:04:05.633Z,27.43
2019-04-05T09:06:34.546Z,25.73
2019-04-05T09:09:08.393Z,25.07
2019-04-05T09:11:39.981Z,26.37
2019-04-05T09:14:08.921Z,25.03
2019-04-05T09:16:37.849Z,26.20
2019-04-05T09:19:07.121Z,26.97
2019-04-05T09:21:40.326Z,26.97
2019-04-05T09:24:08.338Z,26.50
2019-04-05T09:26:37.254Z,25.47
2019-04-05T09:29:10.330Z,25.90
2019-04-05T09:31:39.243Z,26.03
2019-04-05T09:34:08.204Z,26.60
2019-04-05T09:36:37.435Z,25.57
2019-04-05T09:39:15.279Z,25.73
2019-04-05T09:41:41.826Z,26.13
2019-04-05T09:44:10.784Z,24.83
2019-04-05T09:46:46.896Z,26.80
2019-04-05T09:49:10.324Z,27.63
2019-04-05T09:51:39.243Z,25.77
2019-04-05T09:54:11.101Z,27.60
2019-04-05T09:56:40.071Z,27.03
2019-04-05T09:59:08.983Z,27.27
2019-04-05T10:01:37.981Z,28.07
2019-04-05T10:04:06.952Z,26.73
2019-04-05T10:06:35.898Z,27.20
2019-04-05T10:09:08.139Z,27.80
2019-04-05T10:11:37.388Z,26.13
2019-04-05T10:14:08.877Z,25.20
2019-04-05T10:16:38.224Z,24.60
2019-04-05T10:19:07.345Z,25.70
2019-04-05T10:21:39.148Z,26.13
2019-04-05T10:24:08.080Z,25.60
2019-04-05T10:26:40.037Z,25.07
2019-04-05T10:29:08.958Z,25.77
2019-04-05T10:31:38.364Z,25.33
2019-04-05T10:34:07.728Z,25.10
2019-04-05T10:36:39.659Z,25.30
2019-04-05T10:39:09.911Z,24.33
2019-04-05T10:41:40.369Z,24.00
2019-04-05T10:44:10.879Z,24.77
2019-04-05T10:46:39.833Z,23.63
2019-04-05T10:49:08.780Z,24.57
2019-04-05T10:51:37.803Z,22.97
2019-04-05T10:54:09.413Z,24.37
2019-04-05T10:56:38.514Z,23.77
2019-04-05T10:59:07.814Z,24.40
2019-04-05T11:01:37.103Z,22.50
2019-04-05T11:04:08.745Z,22.93
2019-04-05T11:06:39.410Z,21.73
2019-04-05T11:09:08.558Z,23.00
2019-04-05T11:11:37.868Z,21.93
2019-04-05T11:14:13.990Z,23.30
2019-04-05T11:16:38.950Z,21.77
2019-04-05T11:19:09.371Z,23.50
2019-04-05T11:21:38.743Z,23.07
2019-04-05T11:24:07.696Z,24.07
2019-04-05T11:26:39.603Z,21.83
2019-04-05T11:29:08.551Z,21.40
2019-04-05T11:31:40.591Z,22.27
2019-04-05T11:34:09.597Z,23.00
2019-04-05T11:36:39.831Z,22.47
2019-04-05T11:39:09.693Z,22.10
2019-04-05T11:41:40.577Z,21.77
2019-04-05T11:44:09.530Z,21.63
2019-04-05T11:46:39.352Z,21.70
2019-04-05T11:49:08.299Z,21.37
2019-04-05T11:51:37.206Z,21.23
2019-04-05T11:54:06.152Z,20.97
2019-04-05T11:56:37.902Z,21.53
2019-04-05T11:59:08.427Z,21.43
2019-04-05T12:01:41.882Z,21.90
2019-04-05T12:04:10.834Z,22.03
2019-04-05T12:06:39.745Z,21.77
2019-04-05T12:09:09.096Z,21.03
2019-04-05T12:11:38.004Z,22.40
2019-04-05T12:14:07.052Z,20.63
2019-04-05T12:16:37.919Z,20.40
2019-04-05T12:19:07.084Z,21.27
2019-04-05T12:21:38.916Z,21.47
2019-04-05T12:24:10.560Z,21.60
2019-04-05T12:26:42.525Z,22.17
2019-04-05T12:29:10.067Z,20.23
2019-04-05T12:31:39.018Z,22.20
2019-04-05T12:34:08.576Z,21.30
2019-04-05T12:36:38.974Z,21.53
2019-04-05T12:39:10.979Z,21.67
2019-04-05T12:41:40.988Z,21.73
2019-04-05T12:44:14.307Z,21.37
2019-04-05T12:46:45.407Z,21.27
2019-04-05T12:49:13.370Z,22.17
2019-04-05T12:51:45.463Z,22.83
2019-04-05T12:54:14.470Z,21.93
2019-04-05T12:56:43.446Z,23.23
2019-04-05T12:59:12.748Z,21.63
2019-04-05T13:01:43.546Z,21.07
2019-04-05T13:04:12.312Z,23.20
2019-04-05T13:06:42.372Z,21.53
2019-04-05T13:09:13.320Z,21.33
2019-04-05T13:11:43.704Z,22.07
2019-04-05T13:14:13.773Z,21.80
2019-04-05T13:16:42.771Z,22.80
2019-04-05T13:19:13.102Z,22.77
2019-04-05T13:21:42.058Z,21.13
2019-04-05T13:24:10.983Z,21.67
2019-04-05T13:26:42.071Z,21.43
2019-04-05T13:29:11.917Z,22.27
2019-04-05T13:31:40.942Z,21.67
2019-04-05T13:34:10.745Z,21.80
2019-04-05T13:36:39.897Z,22.03
2019-04-05T13:39:10.989Z,21.57
2019-04-05T13:41:41.405Z,21.27
2019-04-05T13:44:10.400Z,21.13
2019-04-05T13:46:42.882Z,21.77
2019-04-05T13:49:11.953Z,21.57
2019-04-05T13:51:42.087Z,22.10
2019-04-05T13:54:11.488Z,22.50
2019-04-05T13:56:41.434Z,21.93
2019-04-05T13:59:11.252Z,22.53
2019-04-05T14:01:40.492Z,22.93
2019-04-05T14:04:10.290Z,23.00
2019-04-05T14:06:40.708Z,22.07
2019-04-05T14:09:15.435Z,22.50
2019-04-05T14:11:43.298Z,21.93
2019-04-05T14:14:12.711Z,22.10
2019-04-05T14:16:43.530Z,21.47
2019-04-05T14:19:13.022Z,20.63
2019-04-05T14:21:47.455Z,23.47
2019-04-05T14:24:15.013Z,22.80
2019-04-05T14:26:44.147Z,22.57
2019-04-05T14:29:13.168Z,23.70
2019-04-05T14:31:42.415Z,22.67
2019-04-05T14:34:14.487Z,22.10
2019-04-05T14:36:43.472Z,21.97
2019-04-05T14:39:12.874Z,23.27
2019-04-05T14:41:42.280Z,24.93
2019-04-05T14:44:14.757Z,28.43
2019-04-05T14:46:43.349Z,24.17
2019-04-05T14:49:15.014Z,23.63
2019-04-05T14:51:53.702Z,24.27
2019-04-05T14:54:14.560Z,24.40
2019-04-05T14:56:43.452Z,25.20
2019-04-05T14:59:12.824Z,24.87
2019-04-05T15:01:46.744Z,23.80
2019-04-05T15:04:15.036Z,25.70
2019-04-05T15:06:43.941Z,23.97
2019-04-05T15:09:14.368Z,25.30
2019-04-05T15:11:43.521Z,25.43
2019-04-05T15:14:12.729Z,24.17
2019-04-05T15:16:44.630Z,27.27
2019-04-05T15:19:13.581Z,26.37
2019-04-05T15:21:44.989Z,24.80
2019-04-05T15:24:15.836Z,25.70
2019-04-05T15:26:44.703Z,26.03
2019-04-05T15:29:13.952Z,26.57
2019-04-05T15:31:42.982Z,25.97
2019-04-05T15:34:11.890Z,23.57
2019-04-05T15:36:40.946Z,25.63
2019-04-05T15:39:10.451Z,27.77
2019-04-05T15:41:39.399Z,25.80
2019-04-05T15:44:08.301Z,27.83
2019-04-05T15:46:37.255Z,30.07
2019-04-05T15:49:06.171Z,28.97
2019-04-05T15:51:35.125Z,27.80
2019-04-05T15:54:04.259Z,27.33
2019-04-05T15:56:34.189Z,25.90
2019-04-05T15:59:04.829Z,26.57
2019-04-05T16:01:34.342Z,26.57
2019-04-05T16:04:06.888Z,26.90
2019-04-05T16:06:35.852Z,26.90
2019-04-05T16:09:06.771Z,28.13
2019-04-05T16:11:35.767Z,27.13
2019-04-05T16:14:04.774Z,26.43
2019-04-05T16:16:36.965Z,28.57
2019-04-05T16:19:05.880Z,29.23
2019-04-05T16:21:34.863Z,29.63
2019-04-05T16:24:03.748Z,29.83
2019-04-05T16:26:34.272Z,30.40
2019-04-05T16:29:04.650Z,28.83
2019-04-05T16:31:36.347Z,29.63
2019-04-05T16:34:05.255Z,29.83
2019-04-05T16:36:37.270Z,29.47
2019-04-05T16:39:09.039Z,27.50
2019-04-05T16:41:38.474Z,29.23
2019-04-05T16:44:07.373Z,28.03
2019-04-05T16:46:36.332Z,28.63
2019-04-05T16:49:05.234Z,27.97
2019-04-05T16:51:34.362Z,28.10
2019-04-05T16:54:04.325Z,28.33
2019-04-05T16:56:33.319Z,27.90
2019-04-05T16:59:02.722Z,30.17
2019-04-05T17:01:33.647Z,27.80
2019-04-05T17:04:04.524Z,28.33
2019-04-05T17:06:35.865Z,27.97
2019-04-05T17:09:07.097Z,26.67
2019-04-05T17:11:36.090Z,27.97
2019-04-05T17:14:08.224Z,27.50
2019-04-05T17:16:37.129Z,26.77
2019-04-05T17:19:06.114Z,26.47
2019-04-05T17:21:37.924Z,28.07
2019-04-05T17:24:06.883Z,29.43
2019-04-05T17:26:37.284Z,29.00
2019-04-05T17:29:06.229Z,28.37
2019-04-05T17:31:36.601Z,28.47
2019-04-05T17:34:08.224Z,29.23
2019-04-05T17:36:37.135Z,29.53
2019-04-05T17:39:07.384Z,28.40
2019-04-05T17:41:36.288Z,29.23
2019-04-05T17:44:07.665Z,30.10
2019-04-05T17:46:36.574Z,29.67
2019-04-05T17:49:08.435Z,29.63
2019-04-05T17:51:37.347Z,30.00
2019-04-05T17:54:06.501Z,30.57
2019-04-05T17:56:38.503Z,29.77
2019-04-05T17:59:07.491Z,32.47
2019-04-05T18:01:38.605Z,31.13
2019-04-05T18:04:07.103Z,31.37
2019-04-05T18:06:37.516Z,31.03
2019-04-05T18:09:07.953Z,30.80
2019-04-05T18:11:36.858Z,32.40
2019-04-05T18:14:06.094Z,30.60
2019-04-05T18:16:37.883Z,32.53
2019-04-05T18:19:06.783Z,32.37
2019-04-05T18:21:39.790Z,33.40
2019-04-05T18:24:09.838Z,31.77
2019-04-05T18:26:39.821Z,31.87
2019-04-05T18:29:09.179Z,33.63
2019-04-05T18:31:38.153Z,33.03
2019-04-05T18:34:07.064Z,33.33
2019-04-05T18:36:37.482Z,31.93
2019-04-05T18:39:07.795Z,33.80
2019-04-05T18:41:42.891Z,34.20
2019-04-05T18:44:11.938Z,36.13
2019-04-05T18:46:43.648Z,34.43
2019-04-05T18:49:15.478Z,35.83
2019-04-05T18:51:44.423Z,35.80
2019-04-05T18:54:13.332Z,38.67
2019-04-05T18:56:43.750Z,35.83
2019-04-05T18:59:15.391Z,35.03
2019-04-05T19:01:44.332Z,35.23
2019-04-05T19:04:13.239Z,37.83
2019-04-05T19:06:42.394Z,35.47
2019-04-05T19:09:14.364Z,33.93
2019-04-05T19:11:44.850Z,34.87
2019-04-05T19:14:13.763Z,35.73
2019-04-05T19:16:42.799Z,37.43
2019-04-05T19:19:11.803Z,36.57
2019-04-05T19:21:43.614Z,37.47
2019-04-05T19:24:12.733Z,37.47
2019-04-05T19:26:41.936Z,37.80
2019-04-05T19:29:11.258Z,38.73
2019-04-05T19:49:17.807Z,41.50
2019-04-05T19:51:46.708Z,40.87
2019-04-05T19:54:15.662Z,41.10
2019-04-05T19:56:44.564Z,39.97
2019-04-05T19:59:13.515Z,40.50
2019-04-05T20:01:42.740Z,43.20
2019-04-05T20:04:13.141Z,42.77
2019-04-05T20:06:42.116Z,41.00
2019-04-05T20:09:12.528Z,44.07
2019-04-05T20:11:41.945Z,42.23
2019-04-05T20:14:11.095Z,45.13
2019-04-05T20:16:41.469Z,42.30
2019-04-05T20:19:11.211Z,41.23
2019-04-05T20:21:43.074Z,44.87
2019-04-05T20:24:14.434Z,43.50
2019-04-05T20:26:42.615Z,44.87
2019-04-05T20:29:13.036Z,43.73
2019-04-05T20:31:43.407Z,45.33
2019-04-05T20:34:13.817Z,45.03
2019-04-05T20:36:42.745Z,48.37
2019-04-05T20:39:12.147Z,45.33
2019-04-05T20:41:43.878Z,45.50
2019-04-05T20:44:12.944Z,44.60
2019-04-05T20:46:42.051Z,42.03
2019-04-05T20:49:12.478Z,40.87
2019-04-05T20:51:41.499Z,41.77
2019-04-05T20:54:23.922Z,39.87
2019-04-05T20:56:44.047Z,38.40
2019-04-05T20:59:13.131Z,38.27
2019-04-05T21:01:44.797Z,36.37
2019-04-05T21:04:13.741Z,38.63
2019-04-05T21:06:42.650Z,36.53
2019-04-05T21:09:14.151Z,36.87
2019-04-05T21:11:45.988Z,36.40
2019-04-05T21:14:14.930Z,36.13
2019-04-05T21:16:43.846Z,34.63
2019-04-05T21:19:13.204Z,34.13
2019-04-05T21:21:42.410Z,34.50
2019-04-05T21:24:11.380Z,34.97
2019-04-05T21:26:40.971Z,36.03
2019-04-05T21:29:11.450Z,35.77
2019-04-05T21:31:42.015Z,35.67
2019-04-05T21:34:13.733Z,36.00
2019-04-05T21:36:42.748Z,37.47
2019-04-05T21:39:11.777Z,36.70
2019-04-05T21:41:43.160Z,37.57
2019-04-05T21:44:13.533Z,37.73
2019-04-05T21:46:42.492Z,39.93
2019-04-05T21:49:12.874Z,39.20
2019-04-05T21:51:41.989Z,38.33
2019-04-05T21:54:12.359Z,40.63
2019-04-05T21:56:45.616Z,40.23
2019-04-05T21:59:14.677Z,38.43
2019-04-05T22:01:43.817Z,39.60
2019-04-05T22:04:12.723Z,39.97
2019-04-05T22:06:44.626Z,40.33
2019-04-05T22:09:13.811Z,42.30
2019-04-05T22:11:42.754Z,42.87
2019-04-05T22:14:14.395Z,43.40
2019-04-05T22:16:43.339Z,42.77
2019-04-05T22:19:15.019Z,43.73
2019-04-05T22:21:43.962Z,45.23
2019-04-05T22:24:12.987Z,45.17
2019-04-05T22:26:44.862Z,43.67
2019-04-05T22:29:13.772Z,42.80
2019-04-05T22:31:45.744Z,43.53
2019-04-05T22:34:14.647Z,43.37
2019-04-05T22:36:43.594Z,44.60
2019-04-05T22:39:12.806Z,44.77
2019-04-05T22:41:43.687Z,46.13
2019-04-05T22:44:12.848Z,44.77
2019-04-05T22:46:44.887Z,45.43
2019-04-05T22:49:13.719Z,48.33
2019-04-05T22:51:42.965Z,49.90
2019-04-05T22:54:12.259Z,48.97
2019-04-05T22:56:43.254Z,48.67
2019-04-05T22:59:12.813Z,48.93
2019-04-05T23:01:42.475Z,49.07
2019-04-05T23:04:14.442Z,49.77
2019-04-05T23:06:43.338Z,49.77
2019-04-05T23:09:12.532Z,50.07
2019-04-05T23:11:44.196Z,49.50
2019-04-05T23:14:13.137Z,50.33
2019-04-05T23:16:43.502Z,50.87
2019-04-05T23:19:15.170Z,51.43
2019-04-05T23:21:44.079Z,51.33
2019-04-05T23:24:13.021Z,52.73
2019-04-05T23:26:41.931Z,53.10
2019-04-05T23:29:13.819Z,56.87
2019-04-05T23:31:42.729Z,56.33
2019-04-05T23:34:15.036Z,58.07
2019-04-05T23:36:43.936Z,56.70
2019-04-05T23:39:12.888Z,59.53
2019-04-05T23:41:44.511Z,60.23
2019-04-05T23:44:13.466Z,61.43
2019-04-05T23:46:45.076Z,66.27
2019-04-05T23:49:14.025Z,64.80
2019-04-05T23:51:45.889Z,61.70
2019-04-05T23:54:14.837Z,64.63
2019-04-05T23:56:43.742Z,66.47
2019-04-05T23:59:15.628Z,67.23
